createdAt,value
2023-04-30T00:01:25.148Z,9.60
2023-04-30T00:03:51.939Z,9.50
2023-04-30T00:06:18.572Z,9.40
2023-04-30T00:08:45.197Z,9.40
2023-04-30T00:11:11.735Z,9.30
2023-04-30T00:13:38.351Z,9.20
2023-04-30T00:16:05.185Z,9.20
2023-04-30T00:18:31.872Z,9.10
2023-04-30T00:20:58.416Z,9.00
2023-04-30T00:23:24.927Z,9.00
2023-04-30T00:25:51.469Z,9.00
2023-04-30T00:28:18.025Z,9.10
2023-04-30T00:30:45.012Z,9.00
2023-04-30T00:33:11.589Z,9.10
2023-04-30T00:35:38.092Z,9.00
2023-04-30T00:38:04.682Z,8.90
2023-04-30T00:40:31.186Z,8.80
2023-04-30T00:42:57.775Z,8.80
2023-04-30T00:45:24.348Z,8.80
2023-04-30T00:47:51.222Z,8.70
2023-04-30T00:50:17.895Z,8.70
2023-04-30T00:52:44.894Z,8.50
2023-04-30T00:55:11.927Z,8.50
2023-04-30T00:57:39.294Z,8.40
2023-04-30T01:00:06.329Z,8.30
2023-04-30T01:02:33.000Z,8.30
2023-04-30T01:04:59.688Z,8.20
2023-04-30T01:07:28.346Z,8.20
2023-04-30T01:09:55.202Z,8.30
2023-04-30T01:12:22.214Z,8.40
2023-04-30T01:14:57.953Z,8.40
2023-04-30T01:17:43.305Z,8.30
2023-04-30T01:20:10.631Z,8.20
2023-04-30T01:22:40.182Z,8.00
2023-04-30T01:25:25.687Z,7.90
2023-04-30T01:27:58.312Z,7.80
2023-04-30T01:30:25.274Z,7.70
2023-04-30T01:32:51.908Z,7.60
2023-04-30T01:35:18.474Z,7.50
2023-04-30T01:37:57.209Z,7.60
2023-04-30T01:40:41.459Z,7.70
2023-04-30T01:43:17.745Z,7.80
2023-04-30T01:45:44.234Z,7.80
2023-04-30T01:48:13.833Z,7.90
2023-04-30T01:51:03.624Z,7.90
2023-04-30T01:53:38.748Z,7.80
2023-04-30T01:56:06.416Z,7.70
2023-04-30T01:58:33.620Z,7.60
2023-04-30T02:01:00.150Z,7.50
2023-04-30T02:03:26.998Z,7.50
2023-04-30T02:05:53.721Z,7.50
2023-04-30T02:08:20.401Z,7.40
2023-04-30T02:10:47.134Z,7.30
2023-04-30T02:13:13.637Z,7.40
2023-04-30T02:15:40.286Z,7.50
2023-04-30T02:18:06.951Z,7.50
2023-04-30T02:20:33.662Z,7.40
2023-04-30T02:23:00.585Z,7.30
2023-04-30T02:25:27.153Z,7.30
2023-04-30T02:27:53.755Z,7.30
2023-04-30T02:30:20.890Z,7.20
2023-04-30T02:32:48.082Z,7.10
2023-04-30T02:35:14.676Z,7.00
2023-04-30T02:37:41.594Z,6.90
2023-04-30T02:40:08.684Z,7.00
2023-04-30T02:42:35.227Z,6.90
2023-04-30T02:45:01.774Z,6.90
2023-04-30T02:47:28.316Z,6.90
2023-04-30T02:49:55.275Z,6.90
2023-04-30T02:52:22.242Z,6.90
2023-04-30T02:54:48.916Z,6.80
2023-04-30T02:57:15.537Z,6.80
2023-04-30T02:59:45.716Z,6.70
2023-04-30T03:02:12.976Z,6.60
2023-04-30T03:04:39.541Z,6.70
2023-04-30T03:07:06.807Z,6.70
2023-04-30T03:09:33.292Z,6.60
2023-04-30T03:11:59.797Z,6.60
2023-04-30T03:14:26.420Z,6.60
2023-04-30T03:16:52.882Z,6.70
2023-04-30T03:19:22.075Z,6.70
2023-04-30T03:21:48.593Z,6.60
2023-04-30T03:24:15.139Z,6.50
2023-04-30T03:26:42.378Z,6.40
2023-04-30T03:29:08.901Z,6.40
2023-04-30T03:31:35.503Z,6.40
2023-04-30T03:34:02.056Z,6.40
2023-04-30T03:36:28.571Z,6.40
2023-04-30T03:38:55.152Z,6.40
2023-04-30T03:41:21.665Z,6.40
2023-04-30T03:43:48.192Z,6.40
2023-04-30T03:46:14.754Z,6.60
2023-04-30T03:48:41.362Z,6.60
2023-04-30T03:51:07.844Z,6.60
2023-04-30T03:53:35.172Z,6.60
2023-04-30T03:56:02.141Z,6.60
2023-04-30T03:58:28.742Z,6.60
2023-04-30T04:00:55.569Z,6.60
2023-04-30T04:03:22.189Z,6.60
2023-04-30T04:05:48.744Z,6.60
2023-04-30T04:08:15.305Z,6.60
2023-04-30T04:10:41.890Z,6.60
2023-04-30T04:13:08.470Z,6.70
2023-04-30T04:15:35.104Z,6.70
2023-04-30T04:18:01.726Z,6.90
2023-04-30T04:20:29.768Z,6.90
2023-04-30T04:22:56.984Z,6.90
2023-04-30T04:25:25.152Z,6.90
2023-04-30T04:27:52.337Z,7.00
2023-04-30T04:30:18.973Z,7.00
2023-04-30T04:32:51.783Z,7.00
2023-04-30T04:35:19.186Z,7.10
2023-04-30T04:37:45.714Z,7.00
2023-04-30T04:40:12.341Z,7.00
2023-04-30T04:42:38.990Z,6.90
2023-04-30T04:45:06.478Z,6.90
2023-04-30T04:47:33.477Z,6.90
2023-04-30T04:50:00.912Z,7.00
2023-04-30T04:52:27.456Z,7.10
2023-04-30T04:54:53.997Z,7.10
2023-04-30T04:57:20.593Z,7.20
2023-04-30T04:59:47.293Z,7.20
2023-04-30T05:02:13.896Z,7.20
2023-04-30T05:04:41.333Z,7.30
2023-04-30T05:07:08.133Z,7.30
2023-04-30T05:09:34.641Z,7.40
2023-04-30T05:12:02.164Z,7.40
2023-04-30T05:14:29.034Z,7.40
2023-04-30T05:16:55.574Z,7.50
2023-04-30T05:19:22.241Z,7.40
2023-04-30T05:21:48.833Z,7.40
2023-04-30T05:24:15.496Z,7.50
2023-04-30T05:26:42.275Z,7.60
2023-04-30T05:29:08.848Z,7.70
2023-04-30T05:31:35.976Z,7.80
2023-04-30T05:34:02.492Z,7.90
2023-04-30T05:36:29.269Z,8.00
2023-04-30T05:38:55.837Z,7.90
2023-04-30T05:41:22.386Z,7.90
2023-04-30T05:43:48.906Z,7.90
2023-04-30T05:46:15.588Z,8.00
2023-04-30T05:48:42.125Z,8.00
2023-04-30T05:51:10.586Z,7.90
2023-04-30T05:53:37.107Z,8.00
2023-04-30T05:56:03.620Z,8.00
2023-04-30T05:58:30.122Z,7.90
2023-04-30T06:00:56.917Z,7.90
2023-04-30T06:03:23.523Z,7.90
2023-04-30T06:05:50.203Z,8.10
2023-04-30T06:08:17.079Z,8.10
2023-04-30T06:10:43.897Z,8.10
2023-04-30T06:13:10.387Z,8.20
2023-04-30T06:15:36.944Z,8.10
2023-04-30T06:18:03.592Z,8.10
2023-04-30T06:20:30.921Z,8.30
2023-04-30T06:22:57.412Z,8.30
2023-04-30T06:25:24.052Z,8.40
2023-04-30T06:27:53.886Z,8.50
2023-04-30T06:30:20.501Z,8.50
2023-04-30T06:32:47.078Z,8.50
2023-04-30T06:35:13.655Z,8.50
2023-04-30T06:37:40.233Z,8.50
2023-04-30T06:40:07.326Z,8.70
2023-04-30T06:42:35.084Z,8.70
2023-04-30T06:45:02.467Z,8.90
2023-04-30T06:47:34.392Z,9.10
2023-04-30T06:50:01.316Z,9.20
2023-04-30T06:52:28.113Z,9.30
2023-04-30T06:54:56.384Z,9.30
2023-04-30T06:57:22.912Z,9.50
2023-04-30T06:59:49.428Z,9.40
2023-04-30T07:02:16.122Z,9.40
2023-04-30T07:04:42.644Z,9.60
2023-04-30T07:07:09.503Z,9.70
2023-04-30T07:09:36.492Z,9.90
2023-04-30T07:12:03.477Z,10.20
2023-04-30T07:14:29.986Z,10.30
2023-04-30T07:16:56.590Z,10.20
2023-04-30T07:19:23.865Z,10.30
2023-04-30T07:21:50.344Z,10.30
2023-04-30T07:24:16.850Z,10.40
2023-04-30T07:26:43.526Z,10.80
2023-04-30T07:29:10.216Z,11.00
2023-04-30T07:31:36.775Z,11.10
2023-04-30T07:34:03.416Z,11.20
2023-04-30T07:36:29.984Z,11.20
2023-04-30T07:38:56.555Z,11.10
2023-04-30T07:41:24.582Z,11.30
2023-04-30T07:43:51.258Z,11.10
2023-04-30T07:46:17.999Z,10.90
2023-04-30T07:48:44.755Z,10.90
2023-04-30T07:51:11.546Z,11.00
2023-04-30T07:53:38.418Z,10.90
2023-04-30T07:56:05.107Z,10.50
2023-04-30T07:58:31.670Z,10.50
2023-04-30T08:00:58.467Z,10.70
2023-04-30T08:03:25.213Z,10.70
2023-04-30T08:05:53.704Z,11.00
2023-04-30T08:08:20.388Z,11.30
2023-04-30T08:10:46.974Z,11.60
2023-04-30T08:13:13.704Z,11.60
2023-04-30T08:15:40.348Z,11.80
2023-04-30T08:18:07.154Z,11.90
2023-04-30T08:20:34.562Z,12.00
2023-04-30T08:23:02.291Z,12.10
2023-04-30T08:25:29.049Z,12.20
2023-04-30T08:27:55.688Z,12.30
2023-04-30T08:30:22.445Z,12.40
2023-04-30T08:32:49.615Z,12.40
2023-04-30T08:35:19.494Z,12.50
2023-04-30T08:37:46.200Z,12.60
2023-04-30T08:40:13.942Z,12.90
2023-04-30T08:42:44.163Z,12.80
2023-04-30T08:45:11.671Z,13.00
2023-04-30T08:47:38.968Z,13.40
2023-04-30T08:50:05.985Z,13.60
2023-04-30T08:52:34.435Z,13.70
2023-04-30T08:55:01.605Z,13.70
2023-04-30T08:57:28.257Z,13.90
2023-04-30T08:59:54.960Z,14.00
2023-04-30T09:02:21.972Z,14.40
2023-04-30T09:04:48.872Z,14.50
2023-04-30T09:07:15.742Z,14.70
2023-04-30T09:09:42.271Z,14.70
2023-04-30T09:12:19.838Z,15.00
2023-04-30T09:15:03.847Z,15.50
2023-04-30T09:17:31.175Z,15.90
2023-04-30T09:20:07.537Z,16.10
2023-04-30T09:22:35.703Z,16.90
2023-04-30T09:25:02.367Z,18.10
2023-04-30T09:27:28.900Z,19.30
2023-04-30T09:29:56.587Z,19.10
2023-04-30T09:32:23.505Z,20.80
2023-04-30T09:34:50.205Z,22.10
2023-04-30T09:37:16.784Z,22.70
2023-04-30T09:39:46.538Z,23.40
2023-04-30T09:42:13.207Z,23.50
2023-04-30T09:44:40.539Z,24.00
2023-04-30T09:47:20.081Z,23.80
2023-04-30T09:49:53.748Z,24.20
2023-04-30T09:52:21.153Z,24.80
2023-04-30T09:54:47.932Z,24.80
2023-04-30T09:57:15.444Z,24.30
2023-04-30T09:59:46.059Z,24.50
2023-04-30T10:02:16.490Z,24.30
2023-04-30T10:04:44.658Z,24.90
2023-04-30T10:07:21.864Z,24.70
2023-04-30T10:09:52.073Z,25.30
2023-04-30T10:12:21.010Z,25.10
2023-04-30T10:14:59.226Z,24.70
2023-04-30T10:17:27.362Z,24.30
2023-04-30T10:19:57.325Z,24.70
2023-04-30T10:22:23.991Z,25.30
2023-04-30T10:24:50.766Z,25.70
2023-04-30T10:27:18.030Z,26.30
2023-04-30T10:29:47.695Z,24.20
2023-04-30T10:32:15.005Z,25.00
2023-04-30T10:34:41.642Z,25.40
2023-04-30T10:37:27.080Z,26.70
2023-04-30T10:39:53.959Z,26.70
2023-04-30T10:42:20.734Z,27.20
2023-04-30T10:44:48.522Z,26.90
2023-04-30T10:47:16.733Z,26.40
2023-04-30T10:49:48.261Z,26.10
2023-04-30T10:52:25.971Z,26.60
2023-04-30T10:54:52.584Z,27.60
2023-04-30T10:57:20.960Z,28.10
2023-04-30T10:59:50.337Z,28.40
2023-04-30T11:02:19.869Z,28.40
2023-04-30T11:05:08.523Z,27.50
2023-04-30T11:07:35.250Z,27.50
2023-04-30T11:10:04.832Z,28.40
2023-04-30T11:12:31.441Z,27.90
2023-04-30T11:15:05.789Z,28.50
2023-04-30T11:17:32.843Z,26.90
2023-04-30T11:20:00.806Z,27.00
2023-04-30T11:22:30.158Z,26.00
2023-04-30T11:24:59.500Z,25.40
2023-04-30T11:27:27.102Z,25.40
2023-04-30T11:29:54.435Z,25.10
2023-04-30T11:32:22.625Z,25.30
2023-04-30T11:34:49.364Z,25.70
2023-04-30T11:37:20.631Z,26.40
2023-04-30T11:39:47.890Z,27.10
2023-04-30T11:42:21.199Z,26.90
2023-04-30T11:44:47.934Z,25.60
2023-04-30T11:47:15.562Z,24.50
2023-04-30T11:49:43.415Z,24.20
2023-04-30T11:52:12.882Z,24.60
2023-04-30T11:54:39.477Z,24.50
2023-04-30T11:57:06.348Z,25.10
2023-04-30T11:59:40.511Z,24.10
2023-04-30T12:02:07.693Z,24.20
2023-04-30T12:04:34.431Z,24.30
2023-04-30T12:07:02.356Z,24.10
2023-04-30T12:09:29.937Z,23.40
2023-04-30T12:11:56.522Z,23.30
2023-04-30T12:14:24.864Z,23.40
2023-04-30T12:16:52.511Z,24.40
2023-04-30T12:19:20.222Z,25.40
2023-04-30T12:21:48.420Z,26.10
2023-04-30T12:24:15.740Z,26.40
2023-04-30T12:26:42.523Z,27.20
2023-04-30T12:29:21.612Z,26.70
2023-04-30T12:31:49.814Z,27.00
2023-04-30T12:34:17.144Z,27.30
2023-04-30T12:36:43.934Z,27.30
2023-04-30T12:39:11.775Z,27.40
2023-04-30T12:41:42.434Z,28.40
2023-04-30T12:44:22.485Z,28.40
2023-04-30T12:46:50.030Z,27.00
2023-04-30T12:49:42.853Z,25.70
2023-04-30T12:52:10.367Z,25.50
2023-04-30T12:54:38.029Z,24.40
2023-04-30T12:57:05.928Z,25.00
2023-04-30T12:59:33.323Z,24.60
2023-04-30T13:02:13.226Z,24.40
2023-04-30T13:04:40.436Z,24.70
2023-04-30T13:07:07.426Z,24.90
2023-04-30T13:09:34.546Z,25.40
2023-04-30T13:12:01.678Z,25.00
2023-04-30T13:14:28.365Z,25.30
2023-04-30T13:16:55.475Z,25.50
2023-04-30T13:19:22.095Z,25.70
2023-04-30T13:21:48.593Z,26.00
2023-04-30T13:24:16.068Z,26.40
2023-04-30T13:26:42.580Z,26.20
2023-04-30T13:29:09.252Z,25.90
2023-04-30T13:31:36.262Z,26.80
2023-04-30T13:34:03.121Z,26.90
2023-04-30T13:36:29.794Z,27.00
2023-04-30T13:38:56.363Z,27.70
2023-04-30T13:41:23.020Z,28.00
2023-04-30T13:43:49.563Z,25.70
2023-04-30T13:46:16.624Z,26.70
2023-04-30T13:48:43.242Z,27.70
2023-04-30T13:51:09.790Z,28.20
2023-04-30T13:53:37.224Z,28.20
2023-04-30T13:56:03.808Z,27.90
2023-04-30T13:58:30.358Z,26.80
2023-04-30T14:00:56.915Z,26.50
2023-04-30T14:03:23.689Z,25.80
2023-04-30T14:05:50.360Z,25.00
2023-04-30T14:08:16.907Z,25.70
2023-04-30T14:10:43.437Z,25.60
2023-04-30T14:13:09.973Z,25.80
2023-04-30T14:15:37.958Z,26.50
2023-04-30T14:18:04.597Z,28.10
2023-04-30T14:20:31.294Z,28.90
2023-04-30T14:22:57.901Z,29.30
2023-04-30T14:25:24.446Z,29.80
2023-04-30T14:27:50.969Z,28.00
2023-04-30T14:30:17.492Z,25.70
2023-04-30T14:32:43.995Z,25.40
2023-04-30T14:35:10.652Z,24.80
2023-04-30T14:37:37.153Z,24.40
2023-04-30T14:40:05.170Z,24.10
2023-04-30T14:42:31.835Z,24.20
2023-04-30T14:44:58.363Z,23.70
2023-04-30T14:47:27.389Z,24.20
2023-04-30T14:49:54.342Z,25.50
2023-04-30T14:52:21.028Z,27.30
2023-04-30T14:54:47.593Z,29.10
2023-04-30T14:57:14.264Z,31.00
2023-04-30T14:59:41.711Z,31.70
2023-04-30T15:02:09.028Z,31.60
2023-04-30T15:04:35.556Z,32.00
2023-04-30T15:07:02.500Z,30.90
2023-04-30T15:09:29.236Z,28.90
2023-04-30T15:11:55.944Z,28.20
2023-04-30T15:14:23.170Z,28.80
2023-04-30T15:16:49.697Z,30.10
2023-04-30T15:19:16.331Z,29.90
2023-04-30T15:21:43.374Z,29.40
2023-04-30T15:24:10.228Z,29.50
2023-04-30T15:26:36.815Z,30.00
2023-04-30T15:29:03.422Z,30.10
2023-04-30T15:31:32.324Z,30.60
2023-04-30T15:33:58.862Z,31.10
2023-04-30T15:36:25.539Z,30.30
2023-04-30T15:38:52.066Z,29.60
2023-04-30T15:41:18.622Z,28.40
2023-04-30T15:43:45.154Z,27.40
2023-04-30T15:46:11.671Z,26.70
2023-04-30T15:48:38.240Z,25.60
2023-04-30T15:51:04.731Z,25.60
2023-04-30T15:53:31.237Z,24.90
2023-04-30T15:55:57.777Z,24.40
2023-04-30T15:58:24.311Z,23.60
2023-04-30T16:00:50.973Z,23.50
2023-04-30T16:03:17.534Z,23.80
2023-04-30T16:05:44.503Z,23.90
2023-04-30T16:08:11.214Z,23.30
2023-04-30T16:10:38.627Z,23.70
2023-04-30T16:13:05.153Z,24.90
2023-04-30T16:15:32.370Z,25.00
2023-04-30T16:17:58.976Z,25.40
2023-04-30T16:20:27.305Z,25.40
2023-04-30T16:22:54.168Z,25.80
2023-04-30T16:25:20.768Z,26.10
2023-04-30T16:27:47.426Z,26.90
2023-04-30T16:30:13.950Z,27.50
2023-04-30T16:32:40.553Z,28.00
2023-04-30T16:35:07.403Z,29.30
2023-04-30T16:37:33.918Z,28.60
2023-04-30T16:40:01.473Z,27.90
2023-04-30T16:42:29.824Z,28.20
2023-04-30T16:44:56.378Z,28.30
2023-04-30T16:47:23.138Z,27.70
2023-04-30T16:49:49.792Z,27.80
2023-04-30T16:52:16.379Z,28.10
2023-04-30T16:54:42.948Z,27.70
2023-04-30T16:57:09.574Z,27.50
2023-04-30T16:59:36.194Z,26.50
2023-04-30T17:02:03.735Z,25.40
2023-04-30T17:04:31.114Z,24.70
2023-04-30T17:06:57.764Z,24.40
2023-04-30T17:09:24.398Z,23.80
2023-04-30T17:11:50.981Z,23.30
2023-04-30T17:14:17.552Z,22.80
2023-04-30T17:16:44.918Z,22.40
2023-04-30T17:19:11.547Z,22.00
2023-04-30T17:21:38.197Z,21.80
2023-04-30T17:24:05.236Z,21.40
2023-04-30T17:26:32.129Z,21.30
2023-04-30T17:28:58.724Z,21.30
2023-04-30T17:31:26.192Z,21.30
2023-04-30T17:33:52.841Z,21.10
2023-04-30T17:36:19.691Z,21.00
2023-04-30T17:38:46.275Z,21.00
2023-04-30T17:41:12.833Z,20.90
2023-04-30T17:43:39.580Z,20.80
2023-04-30T17:46:06.140Z,20.60
2023-04-30T17:48:32.830Z,20.50
2023-04-30T17:51:00.257Z,20.30
2023-04-30T17:53:26.910Z,20.30
2023-04-30T17:55:53.536Z,20.20
2023-04-30T17:58:20.111Z,20.10
2023-04-30T18:00:46.772Z,19.80
2023-04-30T18:03:13.458Z,19.70
2023-04-30T18:05:40.112Z,19.70
2023-04-30T18:08:06.678Z,19.70
2023-04-30T18:10:33.315Z,19.70
2023-04-30T18:12:59.922Z,19.70
2023-04-30T18:15:27.105Z,19.50
2023-04-30T18:17:54.201Z,19.50
2023-04-30T18:20:21.721Z,19.40
2023-04-30T18:22:48.328Z,19.20
2023-04-30T18:25:15.061Z,19.10
2023-04-30T18:27:41.688Z,19.00
2023-04-30T18:30:08.912Z,18.90
2023-04-30T18:32:36.170Z,18.80
2023-04-30T18:35:04.499Z,18.70
2023-04-30T18:37:31.861Z,18.60
2023-04-30T18:39:59.082Z,18.50
2023-04-30T18:42:25.721Z,18.30
2023-04-30T18:44:52.293Z,18.20
2023-04-30T18:47:19.057Z,18.00
2023-04-30T18:49:45.568Z,17.80
2023-04-30T18:52:12.157Z,17.80
2023-04-30T18:54:38.693Z,17.70
2023-04-30T18:57:05.847Z,17.60
2023-04-30T18:59:33.267Z,17.40
2023-04-30T19:02:00.133Z,17.30
2023-04-30T19:04:27.284Z,17.20
2023-04-30T19:06:55.613Z,17.10
2023-04-30T19:09:22.237Z,17.00
2023-04-30T19:11:49.013Z,16.80
2023-04-30T19:14:15.724Z,16.80
2023-04-30T19:16:42.332Z,16.70
2023-04-30T19:19:08.917Z,16.60
2023-04-30T19:21:36.298Z,16.50
2023-04-30T19:24:03.402Z,16.40
2023-04-30T19:26:31.308Z,16.30
2023-04-30T19:28:59.492Z,16.20
2023-04-30T19:31:26.705Z,16.00
2023-04-30T19:33:53.292Z,16.00
2023-04-30T19:36:19.836Z,15.90
2023-04-30T19:38:46.374Z,15.90
2023-04-30T19:41:12.949Z,15.80
2023-04-30T19:43:39.618Z,15.80
2023-04-30T19:46:06.276Z,15.70
2023-04-30T19:48:33.077Z,15.70
2023-04-30T19:51:04.891Z,15.60
2023-04-30T19:56:12.401Z,15.50
2023-04-30T19:58:38.919Z,15.40
2023-04-30T20:01:05.622Z,15.30
2023-04-30T20:03:34.294Z,15.20
2023-04-30T20:06:02.769Z,15.10
2023-04-30T20:08:29.365Z,15.00
2023-04-30T20:10:57.208Z,15.00
2023-04-30T20:13:24.969Z,14.90
2023-04-30T20:15:51.693Z,14.90
2023-04-30T20:18:18.203Z,14.90
2023-04-30T20:20:44.823Z,14.80
2023-04-30T20:23:14.178Z,14.80
2023-04-30T20:25:45.285Z,14.70
2023-04-30T20:28:12.997Z,14.70
2023-04-30T20:30:42.910Z,14.70
2023-04-30T20:33:10.020Z,14.60
2023-04-30T20:35:37.223Z,14.70
2023-04-30T20:38:03.747Z,14.60
2023-04-30T20:40:30.352Z,14.50
2023-04-30T20:42:56.825Z,14.50
2023-04-30T20:45:26.747Z,14.40
2023-04-30T20:47:53.458Z,14.30
2023-04-30T20:50:20.539Z,14.30
2023-04-30T20:52:47.283Z,14.30
2023-04-30T20:55:13.965Z,14.40
2023-04-30T20:57:40.556Z,14.30
2023-04-30T21:00:07.458Z,14.30
2023-04-30T21:02:34.118Z,14.20
2023-04-30T21:05:05.986Z,14.10
2023-04-30T21:07:35.864Z,14.10
2023-04-30T21:10:03.129Z,14.00
2023-04-30T21:12:29.712Z,14.00
2023-04-30T21:14:56.353Z,13.70
2023-04-30T21:17:23.102Z,13.60
2023-04-30T21:19:49.785Z,13.60
2023-04-30T21:22:16.433Z,13.50
2023-04-30T21:24:43.063Z,13.50
2023-04-30T21:27:10.228Z,13.50
2023-04-30T21:29:37.267Z,13.40
2023-04-30T21:32:04.390Z,13.30
2023-04-30T21:34:31.734Z,13.40
2023-04-30T21:36:58.236Z,13.20
2023-04-30T21:39:24.872Z,13.20
2023-04-30T21:41:51.431Z,13.30
2023-04-30T21:44:18.038Z,13.40
2023-04-30T21:46:44.608Z,13.50
2023-04-30T21:49:12.513Z,13.50
2023-04-30T21:51:39.372Z,13.50
2023-04-30T21:54:05.986Z,13.50
2023-04-30T21:56:32.524Z,13.40
2023-04-30T21:58:59.088Z,13.50
2023-04-30T22:01:29.623Z,13.40
2023-04-30T22:03:56.879Z,13.50
2023-04-30T22:06:23.468Z,13.60
2023-04-30T22:08:50.174Z,13.50
2023-04-30T22:11:17.621Z,13.60
2023-04-30T22:13:44.204Z,13.60
2023-04-30T22:16:11.498Z,13.50
2023-04-30T22:18:38.189Z,13.40
2023-04-30T22:21:04.800Z,13.40
2023-04-30T22:23:31.475Z,13.40
2023-04-30T22:25:58.096Z,13.40
2023-04-30T22:28:24.813Z,13.30
2023-04-30T22:30:57.451Z,13.40
2023-04-30T22:33:24.747Z,13.40
2023-04-30T22:35:51.711Z,13.30
2023-04-30T22:38:18.456Z,13.20
2023-04-30T22:40:45.800Z,13.10
2023-04-30T22:43:12.791Z,13.00
2023-04-30T22:45:40.437Z,13.00
2023-04-30T22:48:10.432Z,13.00
2023-04-30T22:50:37.150Z,13.00
2023-04-30T22:53:03.854Z,13.00
2023-04-30T22:55:31.406Z,13.10
2023-04-30T22:57:59.868Z,13.10
2023-04-30T23:00:27.614Z,13.10
2023-04-30T23:02:54.433Z,13.10
2023-04-30T23:05:21.064Z,13.10
2023-04-30T23:07:50.574Z,13.10
2023-04-30T23:10:17.139Z,13.10
2023-04-30T23:12:45.519Z,13.00
2023-04-30T23:15:12.336Z,13.00
2023-04-30T23:17:41.881Z,12.90
2023-04-30T23:20:09.095Z,12.80
2023-04-30T23:22:49.411Z,12.90
2023-04-30T23:25:16.780Z,12.90
2023-04-30T23:27:44.246Z,12.80
2023-04-30T23:30:11.306Z,12.70
2023-04-30T23:32:37.904Z,12.70
2023-04-30T23:35:04.959Z,12.70
2023-04-30T23:37:31.501Z,12.80
2023-04-30T23:39:58.235Z,12.80
2023-04-30T23:42:24.945Z,12.80
2023-04-30T23:44:51.467Z,12.70
2023-04-30T23:47:18.008Z,12.80
2023-04-30T23:49:45.999Z,12.70
2023-04-30T23:52:14.350Z,12.70
2023-04-30T23:54:41.036Z,12.60
2023-04-30T23:57:07.647Z,12.60
2023-04-30T23:59:34.182Z,12.50
